Stacy, Virginia
Current Conditions -  °F | °C
As of 10:15 PM on Thursday 27 Nov 2014 (Local Time) from KJFZ Reporting Station
Light Snow Light Snow  
Wind Chill: 20°   Ceiling: 1300
Heat Index: 28°   Visibility: 7mi
Dew Point: 24°   Wind: 7mph
Humidity: 86%   Direction: 300°WNW
Pressure: 30.26"   Gusts: NA
Location:  37.3014°N, 82.1027°W
Report Text: KJFZ 280315Z AUTO 30006KT 7SM -SN OVC013 M02/M05 A3026 RMK AO2 T10251046
Loading
Personal Weather Stations






























Interactive Weather Map New forecast layout! Learn more

10-Day Weather Forecast

Advertisements
Track Severe Weather on mobile